Bomar Mercury — 9HA2880 — position and weather

sailwx.info

Track history (hours):
 
Tides and Currents Weather Stations Pressure Air Temp Water Temp Dewpoint Dewpoint Depression Visibility Wind Speed Wind Dir Waves Ship Positions

Bomar Mercury

Last reported at 2018-May-25 03:27 UTC. Time now 2018-May-25 03:30 UTC.
Position N 51°02' E 002°16'.

Length 120 m; draft 5.5 m.

Type: Tanker. MMSI: 256541000.

Date/timePositionNaut miles runAvg speedWind from/ knotsBaromVisibWave heightAir tempDewpointWater temp
2018-May-25 03:27N 51°02' E 002°16'0 0.0
2018-May-25 03:00N 51°02' E 002°16'0 0.0
2018-May-25 02:30N 51°02' E 002°16'0 0.0
2018-May-25 01:48N 51°02' E 002°16'0 0.0
2018-May-25 01:30N 51°02' E 002°16'0 0.1
2018-May-25 00:53N 51°02' E 002°16'1 2.9
2018-May-25 00:27N 51°03' E 002°17'2 4.3
2018-May-25 00:00N 51°03' E 002°20'1 1.3
2018-May-24 23:29N 51°04' E 002°21'611.1
2018-May-24 22:59N 51°03' E 002°12'612.8
2018-May-24 22:29N 51°03' E 002°02'613.2
2018-May-24 22:00N 51°03' E 001°52'3 5.8
2018-May-24 21:28N 51°03' E 001°47'0 0.0
2018-May-24 20:58N 51°03' E 001°47'0 0.0
2018-May-24 20:25N 51°03' E 001°47'0 0.0
2018-May-24 19:58N 51°03' E 001°47'0 0.0
2018-May-24 19:25N 51°03' E 001°47'0 0.1
2018-May-24 18:58N 51°03' E 001°47'0 0.2
2018-May-24 18:28N 51°03' E 001°47'0 0.2
2018-May-24 17:58N 51°03' E 001°47'0 0.1
2018-May-24 17:28N 51°03' E 001°47'0 0.1
2018-May-24 16:58N 51°03' E 001°47'0 0.0
2018-May-24 16:28N 51°03' E 001°47'0 0.0
2018-May-24 15:58N 51°03' E 001°47'0 0.0
2018-May-24 15:28N 51°03' E 001°47'0 0.0
2018-May-24 14:52N 51°03' E 001°47'0 0.0
2018-May-24 14:25N 51°03' E 001°47'0 0.0
2018-May-24 13:58N 51°03' E 001°47'0 0.1
2018-May-24 13:28N 51°03' E 001°47'0 0.0
2018-May-24 08:58N 51°03' E 001°47'0 0.0
2018-May-24 08:28N 51°03' E 001°47'0 0.0
2018-May-24 07:58N 51°03' E 001°47'0 0.0
2018-May-24 07:28N 51°03' E 001°47'0 0.0
2018-May-24 06:58N 51°03' E 001°47'0 0.0
2018-May-24 06:28N 51°03' E 001°47'0 0.1
2018-May-24 05:58N 51°03' E 001°47'0 0.2
2018-May-24 05:28N 51°03' E 001°47'0 0.1
2018-May-24 04:43N 51°03' E 001°47'0 0.1
2018-May-24 04:25N 51°03' E 001°47'0 0.0
2018-May-24 03:58N 51°03' E 001°47'0 0.0
2018-May-24 03:28N 51°03' E 001°47'0 0.0
2018-May-24 02:58N 51°03' E 001°47'0 0.0
2018-May-24 02:28N 51°03' E 001°47'0 0.0
2018-May-24 01:58N 51°03' E 001°47'0 0.0
2018-May-24 01:25N 51°03' E 001°47'0 0.0
2018-May-24 00:58N 51°03' E 001°47'0 0.0
2018-May-24 00:28N 51°03' E 001°47'0 0.0
2018-May-23 23:58N 51°03' E 001°47'0 0.0
2018-May-23 23:28N 51°03' E 001°47'0 0.1
2018-May-23 22:55N 51°03' E 001°47'0 0.1
2018-May-23 22:22N 51°03' E 001°47'0 0.1
2018-May-23 21:58N 51°03' E 001°47'0 0.1
2018-May-23 21:28N 51°03' E 001°47'0 0.1
2018-May-23 20:55N 51°03' E 001°47'0 0.0
2018-May-23 20:28N 51°03' E 001°47'0 0.0
2018-May-23 19:58N 51°03' E 001°47'0 0.0
2018-May-23 19:19N 51°03' E 001°47'0 0.1
2018-May-23 18:43N 51°03' E 001°47'0 0.1
2018-May-23 18:25N 51°03' E 001°47'0 0.2
2018-May-23 17:58N 51°03' E 001°47'0 0.1
2018-May-23 17:19N 51°03' E 001°47'0 0.0
2018-May-23 16:58N 51°03' E 001°47'0 0.1
2018-May-23 16:28N 51°03' E 001°47'0 0.0
2018-May-23 15:52N 51°03' E 001°47'0 0.0
2018-May-23 15:25N 51°03' E 001°47'0 0.0
2018-May-23 14:58N 51°03' E 001°47'0 0.0
2018-May-23 14:25N 51°03' E 001°47'0 0.0
2018-May-23 13:58N 51°03' E 001°47'0 0.1
2018-May-23 13:30N 51°03' E 001°47'2 4.7
2018-May-23 13:00N 51°02' E 001°44'4 7.2
2018-May-23 12:30N 50°60' E 001°39'87 9.3
2018-May-23 03:12N 50°12' W 000°16'411.7
2018-May-23 02:50N 50°08' W 000°18'511.7
2018-May-23 02:26N 50°04' W 000°20'511.7
2018-May-23 02:00N 49°59' W 000°22'711.3
2018-May-23 01:24N 49°52' W 000°25'510.6
2018-May-23 00:54N 49°47' W 000°26'510.9
2018-May-23 00:28N 49°42' W 000°24'511.1
2018-May-22 23:59N 49°37' W 000°21'511.0
2018-May-22 23:30N 49°33' W 000°16'611.6
2018-May-22 23:00N 49°31' W 000°08'611.4
2018-May-22 22:31N 49°30' E 000°00'510.7
2018-May-22 22:00N 49°28' E 000°08'1 2.7
2018-May-22 21:30N 49°29' E 000°10'1 2.4
2018-May-22 21:01N 49°29' E 000°12'0 0.2
2018-May-22 20:23N 49°29' E 000°12'0 0.0
2018-May-22 19:53N 49°29' E 000°12'0 0.0
2018-May-22 19:26N 49°29' E 000°12'0 0.0
2018-May-22 18:56N 49°29' E 000°12'0 0.0
2018-May-22 18:26N 49°29' E 000°12'0 0.0
2018-May-22 17:44N 49°29' E 000°12'0 0.0
2018-May-22 17:17N 49°29' E 000°12'0 0.0
2018-May-22 16:59N 49°29' E 000°12'0 0.0
2018-May-22 13:53N 49°29' E 000°12'0 0.0
2018-May-22 13:17N 49°29' E 000°12'0 0.0
2018-May-22 10:32N 49°29' E 000°12'0 0.0
2018-May-22 10:08N 49°29' E 000°12'0 0.0
2018-May-22 09:44N 49°29' E 000°12'0 0.0
2018-May-22 09:23N 49°29' E 000°12'0 0.0
2018-May-22 08:53N 49°29' E 000°12'0 0.0
2018-May-22 06:56N 49°29' E 000°12'0 0.0
2018-May-22 06:26N 49°29' E 000°12'0 0.0
2018-May-22 04:56N 49°29' E 000°12'0 0.0
2018-May-22 00:32N 49°29' E 000°12'0 0.0
2018-May-22 00:26N 49°29' E 000°12'0 0.0
2018-May-21 23:53N 49°29' E 000°12'1 1.9
2018-May-21 23:30N 49°29' E 000°11'1 1.3
2018-May-21 23:00N 49°29' E 000°10'2 4.2
2018-May-21 22:30N 49°29' E 000°07'611.6
2018-May-21 22:00N 49°30' W 000°02'611.1
2018-May-21 21:30N 49°32' W 000°10'611.0
2018-May-21 21:00N 49°34' W 000°18'811.3
2018-May-21 20:19N 49°41' W 000°22'611.4
2018-May-21 19:50N 49°46' W 000°25'411.2
2018-May-21 19:30N 49°50' W 000°26'2912.4
2018-May-21 17:10N 50°18' W 000°14'312.0
2018-May-21 16:54N 50°21' W 000°13'612.1
2018-May-21 16:25N 50°25' W 000°07'511.4
2018-May-21 16:00N 50°29' W 000°01'611.7
2018-May-21 15:30N 50°30' E 000°07'611.1
2018-May-21 15:00N 50°32' E 000°16'710.8
2018-May-21 14:20N 50°34' E 000°27'310.6
2018-May-21 14:00N 50°36' E 000°32'510.5
2018-May-21 13:30N 50°38' E 000°39'511.0
2018-May-21 13:00N 50°41' E 000°46'611.6
2018-May-21 12:30N 50°45' E 000°53'612.5
2018-May-21 12:00N 50°49' E 001°01'1513.6
2018-May-21 10:55N 50°59' E 001°17'614.5
2018-May-21 10:30N 51°03' E 001°25'714.4
2018-May-21 10:00N 51°07' E 001°34'713.3
2018-May-21 09:30N 51°12' E 001°42'612.3
2018-May-21 09:01N 51°17' E 001°48'611.7
2018-May-21 08:30N 51°22' E 001°52'611.0
2018-May-21 08:00N 51°27' E 001°56'510.6
2018-May-21 07:30N 51°31' E 002°02'510.3
2018-May-21 07:00N 51°34' E 002°07'510.0
2018-May-21 06:30N 51°38' E 002°13'510.1
2018-May-21 05:59N 51°42' E 002°18'510.0
2018-May-21 05:30N 51°46' E 002°24'5711.1
2018-May-21 00:21N 52°43' E 002°30'613.4
2018-May-20 23:53N 52°48' E 002°25'613.6
2018-May-20 23:27N 52°54' E 002°21'812.8
2018-May-20 22:49N 52°59' E 002°11'412.9
2018-May-20 22:30N 53°01' E 002°05'612.8
2018-May-20 22:00N 53°03' E 001°55'712.1
2018-May-20 21:26N 53°05' E 001°44'511.8
2018-May-20 21:00N 53°06' E 001°36'611.5
2018-May-20 20:30N 53°10' E 001°28'611.5
2018-May-20 19:58N 53°13' E 001°19'610.8
2018-May-20 19:27N 53°17' E 001°13'511.1
2018-May-20 19:00N 53°21' E 001°08'610.6
2018-May-20 18:25N 53°26' E 001°03'3310.4
2018-May-20 15:15N 53°33' E 000°08'311.7
2018-May-20 15:00N 53°35' E 000°04'611.8
2018-May-20 14:30N 53°37' W 000°05'5 9.4
2018-May-20 14:00N 53°39' W 000°12'0 0.0
2018-May-19 15:16N 53°39' W 000°12'0 1.9
2018-May-19 15:00N 53°38' W 000°12'4 9.0
2018-May-19 14:30N 53°37' W 000°05'11 9.5
2018-May-19 13:24N 53°33' E 000°12'140 7.1
2018-May-18 17:47N 52°13' E 003°21'411.5
2018-May-18 17:27N 52°11' E 003°26'511.2
2018-May-18 16:59N 52°08' E 003°34'511.0
2018-May-18 16:30N 52°05' E 003°41'510.6
2018-May-18 16:00N 52°03' E 003°49'5 9.4
2018-May-18 15:30N 52°02' E 003°56'510.2
2018-May-18 15:00N 51°59' E 004°04'611.6
2018-May-18 14:30N 51°56' E 004°12'510.8
2018-May-18 14:00N 51°53' E 004°19'0 0.2
2018-May-18 12:34N 51°53' E 004°18'0 0.0
2018-May-18 12:28N 51°53' E 004°18'0 0.0
2018-May-18 11:46N 51°53' E 004°18'0 0.0
2018-May-18 11:28N 51°53' E 004°18'0 0.0
2018-May-18 10:13N 51°53' E 004°18'0 0.0
2018-May-18 09:55N 51°53' E 004°18'0 0.0
2018-May-18 09:28N 51°53' E 004°18'0 0.0
2018-May-18 08:55N 51°53' E 004°18'0 0.0
2018-May-18 08:22N 51°53' E 004°18'0 0.0
2018-May-18 07:34N 51°53' E 004°18'0 0.0
2018-May-18 06:25N 51°53' E 004°18'0 0.0
2018-May-18 05:55N 51°53' E 004°18'0 0.0
2018-May-18 05:28N 51°53' E 004°18'0 0.0
2018-May-18 04:52N 51°53' E 004°18'0 0.0
2018-May-18 04:28N 51°53' E 004°18'0 0.0
2018-May-18 03:43N 51°53' E 004°18'0 0.0
2018-May-18 03:19N 51°53' E 004°18'0 0.0
2018-May-18 02:34N 51°53' E 004°18'0 0.0
2018-May-18 02:25N 51°53' E 004°18'0 0.0
2018-May-18 01:52N 51°53' E 004°18'0 0.0
2018-May-18 01:22N 51°53' E 004°18'0 0.0
2018-May-18 00:58N 51°53' E 004°18'0 0.0
2018-May-18 00:25N 51°53' E 004°18'0 0.0
2018-May-17 23:46N 51°53' E 004°18'0 0.0
2018-May-17 23:28N 51°53' E 004°18'0 0.0
2018-May-17 22:55N 51°53' E 004°18'0 0.0
2018-May-17 22:10N 51°53' E 004°18'0 0.0
2018-May-17 21:55N 51°53' E 004°18'0 0.0
2018-May-17 21:19N 51°53' E 004°18'0 0.0
2018-May-17 20:43N 51°53' E 004°18'0 0.0
2018-May-17 20:28N 51°53' E 004°18'0 0.0
2018-May-17 19:43N 51°53' E 004°18'0 0.0
2018-May-17 19:28N 51°53' E 004°18'0 0.0
2018-May-17 18:55N 51°53' E 004°18'0 0.0
2018-May-17 17:40N 51°53' E 004°18'0 0.0
2018-May-17 17:25N 51°53' E 004°18'0 0.0
2018-May-17 16:52N 51°53' E 004°18'0 0.0
2018-May-17 16:25N 51°53' E 004°18'0 0.0
2018-May-17 15:43N 51°53' E 004°18'0 0.0
2018-May-17 15:19N 51°53' E 004°18'0 0.0
2018-May-17 14:31N 51°53' E 004°18'0 0.0
2018-May-17 12:52N 51°53' E 004°18'0 0.0
2018-May-17 10:49N 51°53' E 004°18'0 0.0
2018-May-17 09:34N 51°53' E 004°18'0 0.0
2018-May-17 09:28N 51°53' E 004°18'0 0.0
2018-May-17 08:19N 51°53' E 004°18'0 0.0
2018-May-17 07:55N 51°53' E 004°18'0 0.0
2018-May-17 07:10N 51°53' E 004°18'0 0.0
2018-May-17 06:55N 51°53' E 004°18'0 0.0
2018-May-17 06:28N 51°53' E 004°18'0 0.0
2018-May-17 05:46N 51°53' E 004°18'0 0.0
2018-May-17 05:25N 51°53' E 004°18'0 0.0
2018-May-17 04:58N 51°53' E 004°18'0 0.0
2018-May-17 04:28N 51°53' E 004°18'0 0.0
2018-May-17 03:52N 51°53' E 004°18'0 0.0
2018-May-17 03:28N 51°53' E 004°18'0 0.0
2018-May-17 02:28N 51°53' E 004°18'0 0.0
2018-May-17 01:49N 51°53' E 004°18'0 0.0
2018-May-17 01:22N 51°53' E 004°18'0 0.0
2018-May-17 00:58N 51°53' E 004°18'0 0.0
2018-May-17 00:28N 51°53' E 004°18'0 0.0
2018-May-16 23:43N 51°53' E 004°18'0 0.0
2018-May-16 23:04N 51°53' E 004°18'0 0.3
2018-May-16 23:00N 51°53' E 004°18'2 3.1
2018-May-16 22:30N 51°54' E 004°17'5 9.6
2018-May-16 22:00N 51°57' E 004°10'5 9.4
2018-May-16 21:29N 51°59' E 004°04'4 8.3
2018-May-16 21:00N 52°00' E 003°57'3 6.8
2018-May-16 20:30N 51°59' E 003°52'4 7.2
2018-May-16 19:55N 51°58' E 003°46'4 7.1
2018-May-16 19:25N 51°57' E 003°40'3 6.6
2018-May-16 18:59N 51°55' E 003°37'1 0.1
2018-May-16 07:13N 51°54' E 003°36'0 0.0
2018-May-16 05:37N 51°54' E 003°36'0 0.0
2018-May-16 05:22N 51°54' E 003°36'0 0.3
2018-May-16 04:52N 51°54' E 003°36'0 0.1
2018-May-16 04:10N 51°54' E 003°36'0 0.0
2018-May-16 03:58N 51°54' E 003°36'0 0.0
2018-May-16 03:28N 51°54' E 003°36'0 0.0
2018-May-16 02:46N 51°54' E 003°36'0 0.0
2018-May-16 02:22N 51°54' E 003°36'0 0.0
2018-May-16 00:49N 51°54' E 003°36'0 0.3
2018-May-16 00:28N 51°54' E 003°36'0 0.2
2018-May-15 23:58N 51°54' E 003°36'0 0.0
2018-May-15 20:40N 51°54' E 003°36'0 0.0
2018-May-15 20:25N 51°54' E 003°36'0 0.0
2018-May-15 19:58N 51°54' E 003°36'0 0.0
2018-May-15 19:25N 51°54' E 003°36'0 0.0
2018-May-15 18:13N 51°54' E 003°36'0 0.1
2018-May-15 17:16N 51°54' E 003°36'0 0.1
2018-May-15 16:34N 51°54' E 003°36'0 0.0
2018-May-15 16:25N 51°54' E 003°36'0 0.0
2018-May-15 15:07N 51°54' E 003°36'0 0.0
2018-May-15 14:43N 51°54' E 003°36'0 0.0
2018-May-15 12:31N 51°54' E 003°36'0 0.2
2018-May-15 12:19N 51°54' E 003°36'0 0.0
2018-May-15 07:13N 51°54' E 003°36'  
Track history (hours):
 
Tides and Currents Weather Stations Pressure Air Temp Water Temp Dewpoint Dewpoint Depression Visibility Wind Speed Wind Dir Waves Ship Positions

Bomar Mercury

Last reported at 2018-May-25 03:27 UTC. Time now 2018-May-25 03:30 UTC.
Position N 51°02' E 002°16'.

Length 120 m; draft 5.5 m.

Type: Tanker. MMSI: 256541000.

Date/timePositionNaut miles runAvg speedWind from/ knotsBaromVisibWave heightAir tempDewpointWater temp
2018-May-25 03:27N 51°02' E 002°16'0 0.0
2018-May-25 03:00N 51°02' E 002°16'0 0.0
2018-May-25 02:30N 51°02' E 002°16'0 0.0
2018-May-25 01:48N 51°02' E 002°16'0 0.0
2018-May-25 01:30N 51°02' E 002°16'0 0.1
2018-May-25 00:53N 51°02' E 002°16'1 2.9
2018-May-25 00:27N 51°03' E 002°17'2 4.3
2018-May-25 00:00N 51°03' E 002°20'1 1.3
2018-May-24 23:29N 51°04' E 002°21'611.1
2018-May-24 22:59N 51°03' E 002°12'612.8
2018-May-24 22:29N 51°03' E 002°02'613.2
2018-May-24 22:00N 51°03' E 001°52'3 5.8
2018-May-24 21:28N 51°03' E 001°47'0 0.0
2018-May-24 20:58N 51°03' E 001°47'0 0.0
2018-May-24 20:25N 51°03' E 001°47'0 0.0
2018-May-24 19:58N 51°03' E 001°47'0 0.0
2018-May-24 19:25N 51°03' E 001°47'0 0.1
2018-May-24 18:58N 51°03' E 001°47'0 0.2
2018-May-24 18:28N 51°03' E 001°47'0 0.2
2018-May-24 17:58N 51°03' E 001°47'0 0.1
2018-May-24 17:28N 51°03' E 001°47'0 0.1
2018-May-24 16:58N 51°03' E 001°47'0 0.0
2018-May-24 16:28N 51°03' E 001°47'0 0.0
2018-May-24 15:58N 51°03' E 001°47'0 0.0
2018-May-24 15:28N 51°03' E 001°47'0 0.0
2018-May-24 14:52N 51°03' E 001°47'0 0.0
2018-May-24 14:25N 51°03' E 001°47'0 0.0
2018-May-24 13:58N 51°03' E 001°47'0 0.1
2018-May-24 13:28N 51°03' E 001°47'0 0.0
2018-May-24 08:58N 51°03' E 001°47'0 0.0
2018-May-24 08:28N 51°03' E 001°47'0 0.0
2018-May-24 07:58N 51°03' E 001°47'0 0.0
2018-May-24 07:28N 51°03' E 001°47'0 0.0
2018-May-24 06:58N 51°03' E 001°47'0 0.0
2018-May-24 06:28N 51°03' E 001°47'0 0.1
2018-May-24 05:58N 51°03' E 001°47'0 0.2
2018-May-24 05:28N 51°03' E 001°47'0 0.1
2018-May-24 04:43N 51°03' E 001°47'0 0.1
2018-May-24 04:25N 51°03' E 001°47'0 0.0
2018-May-24 03:58N 51°03' E 001°47'0 0.0
2018-May-24 03:28N 51°03' E 001°47'0 0.0
2018-May-24 02:58N 51°03' E 001°47'0 0.0
2018-May-24 02:28N 51°03' E 001°47'0 0.0
2018-May-24 01:58N 51°03' E 001°47'0 0.0
2018-May-24 01:25N 51°03' E 001°47'0 0.0
2018-May-24 00:58N 51°03' E 001°47'0 0.0
2018-May-24 00:28N 51°03' E 001°47'0 0.0
2018-May-23 23:58N 51°03' E 001°47'0 0.0
2018-May-23 23:28N 51°03' E 001°47'0 0.1
2018-May-23 22:55N 51°03' E 001°47'0 0.1
2018-May-23 22:22N 51°03' E 001°47'0 0.1
2018-May-23 21:58N 51°03' E 001°47'0 0.1
2018-May-23 21:28N 51°03' E 001°47'0 0.1
2018-May-23 20:55N 51°03' E 001°47'0 0.0
2018-May-23 20:28N 51°03' E 001°47'0 0.0
2018-May-23 19:58N 51°03' E 001°47'0 0.0
2018-May-23 19:19N 51°03' E 001°47'0 0.1
2018-May-23 18:43N 51°03' E 001°47'0 0.1
2018-May-23 18:25N 51°03' E 001°47'0 0.2
2018-May-23 17:58N 51°03' E 001°47'0 0.1
2018-May-23 17:19N 51°03' E 001°47'0 0.0
2018-May-23 16:58N 51°03' E 001°47'0 0.1
2018-May-23 16:28N 51°03' E 001°47'0 0.0
2018-May-23 15:52N 51°03' E 001°47'0 0.0
2018-May-23 15:25N 51°03' E 001°47'0 0.0
2018-May-23 14:58N 51°03' E 001°47'0 0.0
2018-May-23 14:25N 51°03' E 001°47'0 0.0
2018-May-23 13:58N 51°03' E 001°47'0 0.1
2018-May-23 13:30N 51°03' E 001°47'2 4.7
2018-May-23 13:00N 51°02' E 001°44'4 7.2
2018-May-23 12:30N 50°60' E 001°39'87 9.3
2018-May-23 03:12N 50°12' W 000°16'411.7
2018-May-23 02:50N 50°08' W 000°18'511.7
2018-May-23 02:26N 50°04' W 000°20'511.7
2018-May-23 02:00N 49°59' W 000°22'711.3
2018-May-23 01:24N 49°52' W 000°25'510.6
2018-May-23 00:54N 49°47' W 000°26'510.9
2018-May-23 00:28N 49°42' W 000°24'511.1
2018-May-22 23:59N 49°37' W 000°21'511.0
2018-May-22 23:30N 49°33' W 000°16'611.6
2018-May-22 23:00N 49°31' W 000°08'611.4
2018-May-22 22:31N 49°30' E 000°00'510.7
2018-May-22 22:00N 49°28' E 000°08'1 2.7
2018-May-22 21:30N 49°29' E 000°10'1 2.4
2018-May-22 21:01N 49°29' E 000°12'0 0.2
2018-May-22 20:23N 49°29' E 000°12'0 0.0
2018-May-22 19:53N 49°29' E 000°12'0 0.0
2018-May-22 19:26N 49°29' E 000°12'0 0.0
2018-May-22 18:56N 49°29' E 000°12'0 0.0
2018-May-22 18:26N 49°29' E 000°12'0 0.0
2018-May-22 17:44N 49°29' E 000°12'0 0.0
2018-May-22 17:17N 49°29' E 000°12'0 0.0
2018-May-22 16:59N 49°29' E 000°12'0 0.0
2018-May-22 13:53N 49°29' E 000°12'0 0.0
2018-May-22 13:17N 49°29' E 000°12'0 0.0
2018-May-22 10:32N 49°29' E 000°12'0 0.0
2018-May-22 10:08N 49°29' E 000°12'0 0.0
2018-May-22 09:44N 49°29' E 000°12'0 0.0
2018-May-22 09:23N 49°29' E 000°12'0 0.0
2018-May-22 08:53N 49°29' E 000°12'0 0.0
2018-May-22 06:56N 49°29' E 000°12'0 0.0
2018-May-22 06:26N 49°29' E 000°12'0 0.0
2018-May-22 04:56N 49°29' E 000°12'0 0.0
2018-May-22 00:32N 49°29' E 000°12'0 0.0
2018-May-22 00:26N 49°29' E 000°12'0 0.0
2018-May-21 23:53N 49°29' E 000°12'1 1.9
2018-May-21 23:30N 49°29' E 000°11'1 1.3
2018-May-21 23:00N 49°29' E 000°10'2 4.2
2018-May-21 22:30N 49°29' E 000°07'611.6
2018-May-21 22:00N 49°30' W 000°02'611.1
2018-May-21 21:30N 49°32' W 000°10'611.0
2018-May-21 21:00N 49°34' W 000°18'811.3
2018-May-21 20:19N 49°41' W 000°22'611.4
2018-May-21 19:50N 49°46' W 000°25'411.2
2018-May-21 19:30N 49°50' W 000°26'2912.4
2018-May-21 17:10N 50°18' W 000°14'312.0
2018-May-21 16:54N 50°21' W 000°13'612.1
2018-May-21 16:25N 50°25' W 000°07'511.4
2018-May-21 16:00N 50°29' W 000°01'611.7
2018-May-21 15:30N 50°30' E 000°07'611.1
2018-May-21 15:00N 50°32' E 000°16'710.8
2018-May-21 14:20N 50°34' E 000°27'310.6
2018-May-21 14:00N 50°36' E 000°32'510.5
2018-May-21 13:30N 50°38' E 000°39'511.0
2018-May-21 13:00N 50°41' E 000°46'611.6
2018-May-21 12:30N 50°45' E 000°53'612.5
2018-May-21 12:00N 50°49' E 001°01'1513.6
2018-May-21 10:55N 50°59' E 001°17'614.5
2018-May-21 10:30N 51°03' E 001°25'714.4
2018-May-21 10:00N 51°07' E 001°34'713.3
2018-May-21 09:30N 51°12' E 001°42'612.3
2018-May-21 09:01N 51°17' E 001°48'611.7
2018-May-21 08:30N 51°22' E 001°52'611.0
2018-May-21 08:00N 51°27' E 001°56'510.6
2018-May-21 07:30N 51°31' E 002°02'510.3
2018-May-21 07:00N 51°34' E 002°07'510.0
2018-May-21 06:30N 51°38' E 002°13'510.1
2018-May-21 05:59N 51°42' E 002°18'510.0
2018-May-21 05:30N 51°46' E 002°24'5711.1
2018-May-21 00:21N 52°43' E 002°30'613.4
2018-May-20 23:53N 52°48' E 002°25'613.6
2018-May-20 23:27N 52°54' E 002°21'812.8
2018-May-20 22:49N 52°59' E 002°11'412.9
2018-May-20 22:30N 53°01' E 002°05'612.8
2018-May-20 22:00N 53°03' E 001°55'712.1
2018-May-20 21:26N 53°05' E 001°44'511.8
2018-May-20 21:00N 53°06' E 001°36'611.5
2018-May-20 20:30N 53°10' E 001°28'611.5
2018-May-20 19:58N 53°13' E 001°19'610.8
2018-May-20 19:27N 53°17' E 001°13'511.1
2018-May-20 19:00N 53°21' E 001°08'610.6
2018-May-20 18:25N 53°26' E 001°03'3310.4
2018-May-20 15:15N 53°33' E 000°08'311.7
2018-May-20 15:00N 53°35' E 000°04'611.8
2018-May-20 14:30N 53°37' W 000°05'5 9.4
2018-May-20 14:00N 53°39' W 000°12'0 0.0
2018-May-19 15:16N 53°39' W 000°12'0 1.9
2018-May-19 15:00N 53°38' W 000°12'4 9.0
2018-May-19 14:30N 53°37' W 000°05'11 9.5
2018-May-19 13:24N 53°33' E 000°12'140 7.1
2018-May-18 17:47N 52°13' E 003°21'411.5
2018-May-18 17:27N 52°11' E 003°26'511.2
2018-May-18 16:59N 52°08' E 003°34'511.0
2018-May-18 16:30N 52°05' E 003°41'510.6
2018-May-18 16:00N 52°03' E 003°49'5 9.4
2018-May-18 15:30N 52°02' E 003°56'510.2
2018-May-18 15:00N 51°59' E 004°04'611.6
2018-May-18 14:30N 51°56' E 004°12'510.8
2018-May-18 14:00N 51°53' E 004°19'0 0.2
2018-May-18 12:34N 51°53' E 004°18'0 0.0
2018-May-18 12:28N 51°53' E 004°18'0 0.0
2018-May-18 11:46N 51°53' E 004°18'0 0.0
2018-May-18 11:28N 51°53' E 004°18'0 0.0
2018-May-18 10:13N 51°53' E 004°18'0 0.0
2018-May-18 09:55N 51°53' E 004°18'0 0.0
2018-May-18 09:28N 51°53' E 004°18'0 0.0
2018-May-18 08:55N 51°53' E 004°18'0 0.0
2018-May-18 08:22N 51°53' E 004°18'0 0.0
2018-May-18 07:34N 51°53' E 004°18'0 0.0
2018-May-18 06:25N 51°53' E 004°18'0 0.0
2018-May-18 05:55N 51°53' E 004°18'0 0.0
2018-May-18 05:28N 51°53' E 004°18'0 0.0
2018-May-18 04:52N 51°53' E 004°18'0 0.0
2018-May-18 04:28N 51°53' E 004°18'0 0.0
2018-May-18 03:43N 51°53' E 004°18'0 0.0
2018-May-18 03:19N 51°53' E 004°18'0 0.0
2018-May-18 02:34N 51°53' E 004°18'0 0.0
2018-May-18 02:25N 51°53' E 004°18'0 0.0
2018-May-18 01:52N 51°53' E 004°18'0 0.0
2018-May-18 01:22N 51°53' E 004°18'0 0.0
2018-May-18 00:58N 51°53' E 004°18'0 0.0
2018-May-18 00:25N 51°53' E 004°18'0 0.0
2018-May-17 23:46N 51°53' E 004°18'0 0.0
2018-May-17 23:28N 51°53' E 004°18'0 0.0
2018-May-17 22:55N 51°53' E 004°18'0 0.0
2018-May-17 22:10N 51°53' E 004°18'0 0.0
2018-May-17 21:55N 51°53' E 004°18'0 0.0
2018-May-17 21:19N 51°53' E 004°18'0 0.0
2018-May-17 20:43N 51°53' E 004°18'0 0.0
2018-May-17 20:28N 51°53' E 004°18'0 0.0
2018-May-17 19:43N 51°53' E 004°18'0 0.0
2018-May-17 19:28N 51°53' E 004°18'0 0.0
2018-May-17 18:55N 51°53' E 004°18'0 0.0
2018-May-17 17:40N 51°53' E 004°18'0 0.0
2018-May-17 17:25N 51°53' E 004°18'0 0.0
2018-May-17 16:52N 51°53' E 004°18'0 0.0
2018-May-17 16:25N 51°53' E 004°18'0 0.0
2018-May-17 15:43N 51°53' E 004°18'0 0.0
2018-May-17 15:19N 51°53' E 004°18'0 0.0
2018-May-17 14:31N 51°53' E 004°18'0 0.0
2018-May-17 12:52N 51°53' E 004°18'0 0.0
2018-May-17 10:49N 51°53' E 004°18'0 0.0
2018-May-17 09:34N 51°53' E 004°18'0 0.0
2018-May-17 09:28N 51°53' E 004°18'0 0.0
2018-May-17 08:19N 51°53' E 004°18'0 0.0
2018-May-17 07:55N 51°53' E 004°18'0 0.0
2018-May-17 07:10N 51°53' E 004°18'0 0.0
2018-May-17 06:55N 51°53' E 004°18'0 0.0
2018-May-17 06:28N 51°53' E 004°18'0 0.0
2018-May-17 05:46N 51°53' E 004°18'0 0.0
2018-May-17 05:25N 51°53' E 004°18'0 0.0
2018-May-17 04:58N 51°53' E 004°18'0 0.0
2018-May-17 04:28N 51°53' E 004°18'0 0.0
2018-May-17 03:52N 51°53' E 004°18'0 0.0
2018-May-17 03:28N 51°53' E 004°18'0 0.0
2018-May-17 02:28N 51°53' E 004°18'0 0.0
2018-May-17 01:49N 51°53' E 004°18'0 0.0
2018-May-17 01:22N 51°53' E 004°18'0 0.0
2018-May-17 00:58N 51°53' E 004°18'0 0.0
2018-May-17 00:28N 51°53' E 004°18'0 0.0
2018-May-16 23:43N 51°53' E 004°18'0 0.0
2018-May-16 23:04N 51°53' E 004°18'0 0.3
2018-May-16 23:00N 51°53' E 004°18'2 3.1
2018-May-16 22:30N 51°54' E 004°17'5 9.6
2018-May-16 22:00N 51°57' E 004°10'5 9.4
2018-May-16 21:29N 51°59' E 004°04'4 8.3
2018-May-16 21:00N 52°00' E 003°57'3 6.8
2018-May-16 20:30N 51°59' E 003°52'4 7.2
2018-May-16 19:55N 51°58' E 003°46'4 7.1
2018-May-16 19:25N 51°57' E 003°40'3 6.6
2018-May-16 18:59N 51°55' E 003°37'1 0.1
2018-May-16 07:13N 51°54' E 003°36'0 0.0
2018-May-16 05:37N 51°54' E 003°36'0 0.0
2018-May-16 05:22N 51°54' E 003°36'0 0.3
2018-May-16 04:52N 51°54' E 003°36'0 0.1
2018-May-16 04:10N 51°54' E 003°36'0 0.0
2018-May-16 03:58N 51°54' E 003°36'0 0.0
2018-May-16 03:28N 51°54' E 003°36'0 0.0
2018-May-16 02:46N 51°54' E 003°36'0 0.0
2018-May-16 02:22N 51°54' E 003°36'0 0.0
2018-May-16 00:49N 51°54' E 003°36'0 0.3
2018-May-16 00:28N 51°54' E 003°36'0 0.2
2018-May-15 23:58N 51°54' E 003°36'0 0.0
2018-May-15 20:40N 51°54' E 003°36'0 0.0
2018-May-15 20:25N 51°54' E 003°36'0 0.0
2018-May-15 19:58N 51°54' E 003°36'0 0.0
2018-May-15 19:25N 51°54' E 003°36'0 0.0
2018-May-15 18:13N 51°54' E 003°36'0 0.1
2018-May-15 17:16N 51°54' E 003°36'0 0.1
2018-May-15 16:34N 51°54' E 003°36'0 0.0
2018-May-15 16:25N 51°54' E 003°36'0 0.0
2018-May-15 15:07N 51°54' E 003°36'0 0.0
2018-May-15 14:43N 51°54' E 003°36'0 0.0
2018-May-15 12:31N 51°54' E 003°36'0 0.2
2018-May-15 12:19N 51°54' E 003°36'0 0.0
2018-May-15 07:13N 51°54' E 003°36'  

Dump ship's entire track history